sensor_id;sensor_type;location;lat;lon;timestamp;pressure;altitude;pressure_sealevel;temperature;humidity
77452;BME280;66537;52.370;4.832;2023-03-23T00:02:22;100152.41;;;11.53;84.52
77452;BME280;66537;52.370;4.832;2023-03-23T00:04:47;100155.63;;;11.58;83.79
77452;BME280;66537;52.370;4.832;2023-03-23T00:07:14;100145.41;;;11.55;83.78
77452;BME280;66537;52.370;4.832;2023-03-23T00:09:49;100150.25;;;11.62;83.66
77452;BME280;66537;52.370;4.832;2023-03-23T00:12:19;100159.16;;;11.57;83.95
77452;BME280;66537;52.370;4.832;2023-03-23T00:14:44;100146.59;;;11.68;83.22
77452;BME280;66537;52.370;4.832;2023-03-23T00:17:10;100158.03;;;11.62;83.33
77452;BME280;66537;52.370;4.832;2023-03-23T00:19:39;100155.53;;;11.61;83.90
77452;BME280;66537;52.370;4.832;2023-03-23T00:22:12;100151.03;;;11.64;83.08
77452;BME280;66537;52.370;4.832;2023-03-23T00:24:38;100159.22;;;11.75;82.59
77452;BME280;66537;52.370;4.832;2023-03-23T00:27:03;100143.94;;;11.69;82.28
77452;BME280;66537;52.370;4.832;2023-03-23T00:29:28;100140.44;;;11.70;82.41
77452;BME280;66537;52.370;4.832;2023-03-23T00:31:54;100137.09;;;11.68;82.36
77452;BME280;66537;52.370;4.832;2023-03-23T00:34:22;100139.81;;;11.64;82.94
77452;BME280;66537;52.370;4.832;2023-03-23T00:36:54;100138.94;;;11.65;82.76
77452;BME280;66537;52.370;4.832;2023-03-23T00:39:23;100119.03;;;11.67;82.56
77452;BME280;66537;52.370;4.832;2023-03-23T00:41:53;100119.19;;;11.62;82.54
77452;BME280;66537;52.370;4.832;2023-03-23T00:44:19;100114.34;;;11.55;82.26
77452;BME280;66537;52.370;4.832;2023-03-23T00:46:49;100128.75;;;11.60;82.36
77452;BME280;66537;52.370;4.832;2023-03-23T00:49:17;100127.81;;;11.63;82.09
77452;BME280;66537;52.370;4.832;2023-03-23T00:51:43;100130.38;;;11.63;82.44
77452;BME280;66537;52.370;4.832;2023-03-23T00:54:09;100113.69;;;11.70;81.83
77452;BME280;66537;52.370;4.832;2023-03-23T00:56:35;100119.28;;;11.59;82.14
77452;BME280;66537;52.370;4.832;2023-03-23T00:59:00;100116.69;;;11.59;82.09
77452;BME280;66537;52.370;4.832;2023-03-23T01:01:26;100104.59;;;11.60;81.79
77452;BME280;66537;52.370;4.832;2023-03-23T01:03:51;100113.91;;;11.64;81.95
77452;BME280;66537;52.370;4.832;2023-03-23T01:06:27;100116.69;;;11.59;82.13
77452;BME280;66537;52.370;4.832;2023-03-23T01:08:52;100121.59;;;11.67;81.53
77452;BME280;66537;52.370;4.832;2023-03-23T01:11:19;100111.59;;;11.58;81.72
77452;BME280;66537;52.370;4.832;2023-03-23T01:13:45;100114.19;;;11.58;81.51
77452;BME280;66537;52.370;4.832;2023-03-23T01:16:11;100109.53;;;11.66;82.00
77452;BME280;66537;52.370;4.832;2023-03-23T01:18:37;100093.47;;;11.58;81.81
77452;BME280;66537;52.370;4.832;2023-03-23T01:21:05;100088.22;;;11.59;81.69
77452;BME280;66537;52.370;4.832;2023-03-23T01:23:32;100092.50;;;11.60;81.86
77452;BME280;66537;52.370;4.832;2023-03-23T01:26:02;100078.47;;;11.66;81.72
77452;BME280;66537;52.370;4.832;2023-03-23T01:28:28;100073.31;;;11.64;81.07
77452;BME280;66537;52.370;4.832;2023-03-23T01:30:59;100081.69;;;11.71;81.19
77452;BME280;66537;52.370;4.832;2023-03-23T01:33:24;100078.47;;;11.66;81.31
77452;BME280;66537;52.370;4.832;2023-03-23T01:35:50;100075.06;;;11.64;81.40
77452;BME280;66537;52.370;4.832;2023-03-23T01:38:15;100074.16;;;11.65;81.06
77452;BME280;66537;52.370;4.832;2023-03-23T01:40:41;100066.41;;;11.65;81.08
77452;BME280;66537;52.370;4.832;2023-03-23T01:43:14;100063.38;;;11.55;81.64
77452;BME280;66537;52.370;4.832;2023-03-23T01:45:41;100070.06;;;11.59;80.99
77452;BME280;66537;52.370;4.832;2023-03-23T01:50:43;100062.19;;;11.62;81.33
77452;BME280;66537;52.370;4.832;2023-03-23T01:53:11;100070.38;;;11.53;81.36
77452;BME280;66537;52.370;4.832;2023-03-23T01:55:39;100080.44;;;11.59;81.47
77452;BME280;66537;52.370;4.832;2023-03-23T01:58:06;100060.00;;;11.53;81.28
77452;BME280;66537;52.370;4.832;2023-03-23T02:00:34;100058.97;;;11.57;81.03
77452;BME280;66537;52.370;4.832;2023-03-23T02:03:00;100051.03;;;11.60;81.22
77452;BME280;66537;52.370;4.832;2023-03-23T02:05:40;100055.13;;;11.66;80.87
77452;BME280;66537;52.370;4.832;2023-03-23T02:08:07;100045.09;;;11.58;81.00
77452;BME280;66537;52.370;4.832;2023-03-23T02:10:35;100042.50;;;11.58;80.67
77452;BME280;66537;52.370;4.832;2023-03-23T02:13:03;100042.66;;;11.55;81.00
77452;BME280;66537;52.370;4.832;2023-03-23T02:18:20;100039.06;;;11.58;80.86
77452;BME280;66537;52.370;4.832;2023-03-23T02:23:55;100046.50;;;11.65;81.09
77452;BME280;66537;52.370;4.832;2023-03-23T02:32:45;100038.75;;;11.65;80.89
77452;BME280;66537;52.370;4.832;2023-03-23T02:35:44;100046.47;;;11.67;80.79
77452;BME280;66537;52.370;4.832;2023-03-23T02:38:17;100038.00;;;11.62;80.54
77452;BME280;66537;52.370;4.832;2023-03-23T02:40:48;100050.06;;;11.63;81.14
77452;BME280;66537;52.370;4.832;2023-03-23T02:43:18;100030.47;;;11.57;80.97
77452;BME280;66537;52.370;4.832;2023-03-23T02:45:45;100037.00;;;11.66;80.53
77452;BME280;66537;52.370;4.832;2023-03-23T02:48:13;100035.09;;;11.69;80.55
77452;BME280;66537;52.370;4.832;2023-03-23T02:50:43;100037.94;;;11.63;80.83
77452;BME280;66537;52.370;4.832;2023-03-23T02:53:12;100027.88;;;11.57;81.73
77452;BME280;66537;52.370;4.832;2023-03-23T02:55:41;100022.91;;;11.53;81.18
77452;BME280;66537;52.370;4.832;2023-03-23T02:58:09;100035.56;;;11.59;81.05
77452;BME280;66537;52.370;4.832;2023-03-23T03:00:35;100033.25;;;11.53;82.41
77452;BME280;66537;52.370;4.832;2023-03-23T03:03:02;100040.47;;;11.46;82.97
77452;BME280;66537;52.370;4.832;2023-03-23T03:06:02;100038.69;;;11.28;84.50
77452;BME280;66537;52.370;4.832;2023-03-23T03:11:12;100038.03;;;11.23;84.85
77452;BME280;66537;52.370;4.832;2023-03-23T03:13:46;100042.44;;;11.21;85.50
77452;BME280;66537;52.370;4.832;2023-03-23T03:16:38;100037.41;;;11.18;85.29
77452;BME280;66537;52.370;4.832;2023-03-23T03:19:26;100029.78;;;11.15;85.61
77452;BME280;66537;52.370;4.832;2023-03-23T03:21:56;100024.66;;;11.14;86.08
77452;BME280;66537;52.370;4.832;2023-03-23T03:24:26;100051.66;;;11.08;86.35
77452;BME280;66537;52.370;4.832;2023-03-23T03:26:54;100029.88;;;10.94;88.04
77452;BME280;66537;52.370;4.832;2023-03-23T03:29:32;100034.97;;;10.75;89.31
77452;BME280;66537;52.370;4.832;2023-03-23T03:32:01;100061.88;;;10.71;89.39
77452;BME280;66537;52.370;4.832;2023-03-23T03:34:30;100051.75;;;10.66;89.34
77452;BME280;66537;52.370;4.832;2023-03-23T03:36:59;100065.63;;;10.64;89.29
77452;BME280;66537;52.370;4.832;2023-03-23T03:39:26;100072.69;;;10.60;87.90
77452;BME280;66537;52.370;4.832;2023-03-23T03:41:51;100077.06;;;10.58;87.62
77452;BME280;66537;52.370;4.832;2023-03-23T03:44:17;100071.91;;;10.58;87.40
77452;BME280;66537;52.370;4.832;2023-03-23T03:46:42;100052.31;;;10.53;87.04
77452;BME280;66537;52.370;4.832;2023-03-23T03:49:09;100054.03;;;10.52;87.01
77452;BME280;66537;52.370;4.832;2023-03-23T03:51:37;100046.47;;;10.48;86.54
77452;BME280;66537;52.370;4.832;2023-03-23T03:54:02;100033.53;;;10.48;86.69
77452;BME280;66537;52.370;4.832;2023-03-23T03:56:28;100046.53;;;10.46;86.17
77452;BME280;66537;52.370;4.832;2023-03-23T03:58:53;100065.88;;;10.58;85.63
77452;BME280;66537;52.370;4.832;2023-03-23T04:01:20;100060.13;;;10.71;84.39
77452;BME280;66537;52.370;4.832;2023-03-23T04:03:50;100042.97;;;10.69;84.50
77452;BME280;66537;52.370;4.832;2023-03-23T04:06:16;100051.28;;;10.77;84.62
77452;BME280;66537;52.370;4.832;2023-03-23T04:08:42;100050.50;;;10.75;84.00
77452;BME280;66537;52.370;4.832;2023-03-23T04:11:09;100044.78;;;10.67;85.62
77452;BME280;66537;52.370;4.832;2023-03-23T04:13:35;100054.50;;;10.62;86.33
77452;BME280;66537;52.370;4.832;2023-03-23T04:16:00;100048.47;;;10.61;86.30
77452;BME280;66537;52.370;4.832;2023-03-23T04:18:27;100063.16;;;10.61;86.61
77452;BME280;66537;52.370;4.832;2023-03-23T04:20:53;100072.13;;;10.52;87.33
77452;BME280;66537;52.370;4.832;2023-03-23T04:23:24;100081.09;;;10.44;88.96
77452;BME280;66537;52.370;4.832;2023-03-23T04:25:51;100078.66;;;10.41;88.69
77452;BME280;66537;52.370;4.832;2023-03-23T04:28:17;100087.91;;;10.46;88.20
77452;BME280;66537;52.370;4.832;2023-03-23T04:30:44;100095.75;;;10.43;88.48
77452;BME280;66537;52.370;4.832;2023-03-23T04:33:10;100072.22;;;10.29;89.75
77452;BME280;66537;52.370;4.832;2023-03-23T04:35:40;100100.75;;;10.26;90.36
77452;BME280;66537;52.370;4.832;2023-03-23T04:38:06;100097.44;;;10.23;91.53
77452;BME280;66537;52.370;4.832;2023-03-23T04:40:36;100105.75;;;10.31;90.50
77452;BME280;66537;52.370;4.832;2023-03-23T04:43:01;100095.09;;;10.17;91.08
77452;BME280;66537;52.370;4.832;2023-03-23T04:45:31;100108.94;;;10.16;90.59
77452;BME280;66537;52.370;4.832;2023-03-23T04:47:56;100109.22;;;10.08;90.65
77452;BME280;66537;52.370;4.832;2023-03-23T04:50:28;100112.41;;;10.15;89.85
77452;BME280;66537;52.370;4.832;2023-03-23T04:52:56;100108.28;;;10.09;89.83
77452;BME280;66537;52.370;4.832;2023-03-23T04:55:23;100117.53;;;10.16;89.05
77452;BME280;66537;52.370;4.832;2023-03-23T04:57:49;100101.19;;;10.16;88.81
77452;BME280;66537;52.370;4.832;2023-03-23T05:00:15;100114.91;;;10.18;87.95
77452;BME280;66537;52.370;4.832;2023-03-23T05:02:42;100117.41;;;10.19;87.78
77452;BME280;66537;52.370;4.832;2023-03-23T05:05:10;100112.38;;;10.16;87.29
77452;BME280;66537;52.370;4.832;2023-03-23T05:07:37;100111.41;;;10.19;87.50
77452;BME280;66537;52.370;4.832;2023-03-23T05:10:03;100107.00;;;10.21;86.28
77452;BME280;66537;52.370;4.832;2023-03-23T05:12:28;100122.44;;;10.22;86.90
77452;BME280;66537;52.370;4.832;2023-03-23T05:14:54;100125.94;;;10.21;86.31
77452;BME280;66537;52.370;4.832;2023-03-23T05:17:20;100120.84;;;10.20;86.76
77452;BME280;66537;52.370;4.832;2023-03-23T05:19:45;100142.97;;;10.27;86.52
77452;BME280;66537;52.370;4.832;2023-03-23T05:22:13;100112.88;;;10.26;85.50
77452;BME280;66537;52.370;4.832;2023-03-23T05:24:39;100134.03;;;10.35;85.73
77452;BME280;66537;52.370;4.832;2023-03-23T05:27:05;100128.06;;;10.33;85.59
77452;BME280;66537;52.370;4.832;2023-03-23T05:29:33;100130.75;;;10.30;85.35
77452;BME280;66537;52.370;4.832;2023-03-23T05:32:01;100121.50;;;10.25;85.65
77452;BME280;66537;52.370;4.832;2023-03-23T05:34:27;100140.44;;;10.25;85.10
77452;BME280;66537;52.370;4.832;2023-03-23T05:36:54;100129.19;;;10.26;84.69
77452;BME280;66537;52.370;4.832;2023-03-23T05:39:21;100127.63;;;10.22;84.66
77452;BME280;66537;52.370;4.832;2023-03-23T05:41:47;100159.44;;;10.24;84.99
77452;BME280;66537;52.370;4.832;2023-03-23T05:44:13;100147.59;;;10.19;84.98
77452;BME280;66537;52.370;4.832;2023-03-23T05:46:39;100162.94;;;10.23;84.86
77452;BME280;66537;52.370;4.832;2023-03-23T05:49:05;100150.06;;;10.22;84.84
77452;BME280;66537;52.370;4.832;2023-03-23T05:51:30;100154.22;;;10.26;84.97
77452;BME280;66537;52.370;4.832;2023-03-23T05:53:56;100163.09;;;10.19;85.29
77452;BME280;66537;52.370;4.832;2023-03-23T05:56:22;100155.41;;;10.17;85.09
77452;BME280;66537;52.370;4.832;2023-03-23T05:58:48;100167.59;;;10.14;85.30
77452;BME280;66537;52.370;4.832;2023-03-23T06:01:13;100155.72;;;10.08;85.81
77452;BME280;66537;52.370;4.832;2023-03-23T06:03:40;100162.31;;;10.17;85.14
77452;BME280;66537;52.370;4.832;2023-03-23T06:06:05;100177.88;;;10.15;85.48
77452;BME280;66537;52.370;4.832;2023-03-23T06:08:31;100157.91;;;10.19;84.80
77452;BME280;66537;52.370;4.832;2023-03-23T06:10:56;100165.69;;;10.19;84.74
77452;BME280;66537;52.370;4.832;2023-03-23T06:13:22;100171.34;;;10.28;84.94
77452;BME280;66537;52.370;4.832;2023-03-23T06:15:48;100172.19;;;10.29;84.38
77452;BME280;66537;52.370;4.832;2023-03-23T06:18:13;100191.94;;;10.31;84.77
77452;BME280;66537;52.370;4.832;2023-03-23T06:20:39;100196.75;;;10.40;84.45
77452;BME280;66537;52.370;4.832;2023-03-23T06:23:05;100181.94;;;10.44;83.80
77452;BME280;66537;52.370;4.832;2023-03-23T06:25:32;100185.50;;;10.41;84.21
77452;BME280;66537;52.370;4.832;2023-03-23T06:27:58;100177.56;;;10.46;84.05
77452;BME280;66537;52.370;4.832;2023-03-23T06:30:24;100201.69;;;10.46;83.59
77452;BME280;66537;52.370;4.832;2023-03-23T06:32:50;100202.41;;;10.50;84.05
77452;BME280;66537;52.370;4.832;2023-03-23T06:35:15;100192.50;;;10.38;83.35
77452;BME280;66537;52.370;4.832;2023-03-23T06:37:41;100203.34;;;10.47;83.67
77452;BME280;66537;52.370;4.832;2023-03-23T06:40:08;100216.97;;;10.52;84.20
77452;BME280;66537;52.370;4.832;2023-03-23T06:42:35;100205.84;;;10.50;83.64
77452;BME280;66537;52.370;4.832;2023-03-23T06:45:03;100217.69;;;10.56;83.27
77452;BME280;66537;52.370;4.832;2023-03-23T06:47:28;100216.97;;;10.52;83.24
77452;BME280;66537;52.370;4.832;2023-03-23T06:49:55;100212.44;;;10.57;82.72
77452;BME280;66537;52.370;4.832;2023-03-23T06:52:21;100219.41;;;10.55;82.74
77452;BME280;66537;52.370;4.832;2023-03-23T06:54:48;100215.88;;;10.58;83.21
77452;BME280;66537;52.370;4.832;2023-03-23T06:57:14;100219.41;;;10.55;82.60
77452;BME280;66537;52.370;4.832;2023-03-23T06:59:39;100216.00;;;10.55;82.90
77452;BME280;66537;52.370;4.832;2023-03-23T07:02:05;100237.66;;;10.52;82.78
77452;BME280;66537;52.370;4.832;2023-03-23T07:04:30;100218.75;;;10.50;83.14
77452;BME280;66537;52.370;4.832;2023-03-23T07:06:57;100224.72;;;10.52;82.19
77452;BME280;66537;52.370;4.832;2023-03-23T07:09:22;100212.44;;;10.57;82.63
77452;BME280;66537;52.370;4.832;2023-03-23T07:11:47;100217.53;;;10.60;82.26
77452;BME280;66537;52.370;4.832;2023-03-23T07:14:13;100223.50;;;10.61;81.53
77452;BME280;66537;52.370;4.832;2023-03-23T07:16:40;100215.03;;;10.57;82.01
77452;BME280;66537;52.370;4.832;2023-03-23T07:19:05;100220.22;;;10.57;82.11
77452;BME280;66537;52.370;4.832;2023-03-23T07:21:31;100220.75;;;10.65;81.59
77452;BME280;66537;52.370;4.832;2023-03-23T07:23:56;100231.88;;;10.67;80.78
77452;BME280;66537;52.370;4.832;2023-03-23T07:26:22;100224.38;;;10.61;81.16
77452;BME280;66537;52.370;4.832;2023-03-23T07:28:47;100231.72;;;10.72;80.89
77452;BME280;66537;52.370;4.832;2023-03-23T07:31:13;100244.88;;;10.66;80.05
77452;BME280;66537;52.370;4.832;2023-03-23T07:33:38;100235.41;;;10.66;80.83
77452;BME280;66537;52.370;4.832;2023-03-23T07:36:04;100235.72;;;10.57;80.79
77452;BME280;66537;52.370;4.832;2023-03-23T07:38:29;100242.13;;;10.47;81.01
77452;BME280;66537;52.370;4.832;2023-03-23T07:40:56;100251.88;;;10.41;81.10
77452;BME280;66537;52.370;4.832;2023-03-23T07:43:23;100270.41;;;10.75;79.75
77452;BME280;66537;52.370;4.832;2023-03-23T07:45:48;100264.44;;;10.73;79.99
77452;BME280;66537;52.370;4.832;2023-03-23T07:48:14;100262.75;;;11.15;78.46
77452;BME280;66537;52.370;4.832;2023-03-23T07:50:39;100269.16;;;11.07;78.36
77452;BME280;66537;52.370;4.832;2023-03-23T07:53:05;100271.28;;;11.19;78.65
77452;BME280;66537;52.370;4.832;2023-03-23T07:55:31;100252.09;;;12.05;74.95
77452;BME280;66537;52.370;4.832;2023-03-23T07:57:57;100244.22;;;12.99;71.93
77452;BME280;66537;52.370;4.832;2023-03-23T08:00:23;100250.13;;;13.90;68.45
77452;BME280;66537;52.370;4.832;2023-03-23T08:02:53;100249.34;;;13.88;67.34
77452;BME280;66537;52.370;4.832;2023-03-23T08:05:20;100239.50;;;13.60;67.81
77452;BME280;66537;52.370;4.832;2023-03-23T08:07:47;100251.56;;;13.95;66.72
77452;BME280;66537;52.370;4.832;2023-03-23T08:10:14;100252.78;;;14.69;65.78
77452;BME280;66537;52.370;4.832;2023-03-23T08:12:42;100243.47;;;14.81;63.85
77452;BME280;66537;52.370;4.832;2023-03-23T08:15:09;100258.59;;;15.05;62.61
77452;BME280;66537;52.370;4.832;2023-03-23T08:17:38;100263.91;;;15.33;62.42
77452;BME280;66537;52.370;4.832;2023-03-23T08:20:04;100260.28;;;15.95;61.11
77452;BME280;66537;52.370;4.832;2023-03-23T08:22:37;100260.88;;;15.71;60.86
77452;BME280;66537;52.370;4.832;2023-03-23T08:25:04;100253.88;;;16.43;59.34
77452;BME280;66537;52.370;4.832;2023-03-23T08:27:31;100270.25;;;16.17;58.62
77452;BME280;66537;52.370;4.832;2023-03-23T08:29:56;100265.13;;;16.15;60.62
77452;BME280;66537;52.370;4.832;2023-03-23T08:32:22;100267.41;;;15.64;61.61
77452;BME280;66537;52.370;4.832;2023-03-23T08:34:48;100275.47;;;15.59;60.25
77452;BME280;66537;52.370;4.832;2023-03-23T08:37:14;100256.81;;;15.51;59.68
77452;BME280;66537;52.370;4.832;2023-03-23T08:39:39;100275.19;;;16.07;59.17
77452;BME280;66537;52.370;4.832;2023-03-23T08:42:05;100269.00;;;15.51;59.29
77452;BME280;66537;52.370;4.832;2023-03-23T08:44:30;100273.16;;;15.98;56.97
77452;BME280;66537;52.370;4.832;2023-03-23T08:46:55;100268.97;;;16.66;56.92
77452;BME280;66537;52.370;4.832;2023-03-23T08:49:24;100274.28;;;16.08;57.54
77452;BME280;66537;52.370;4.832;2023-03-23T08:51:50;100278.34;;;16.12;57.38
77452;BME280;66537;52.370;4.832;2023-03-23T08:54:16;100283.88;;;16.36;57.55
77452;BME280;66537;52.370;4.832;2023-03-23T08:56:42;100280.88;;;15.56;58.27
77452;BME280;66537;52.370;4.832;2023-03-23T08:59:08;100278.69;;;15.49;59.36
77452;BME280;66537;52.370;4.832;2023-03-23T09:01:34;100274.78;;;15.42;60.22
77452;BME280;66537;52.370;4.832;2023-03-23T09:03:59;100277.59;;;15.37;59.12
77452;BME280;66537;52.370;4.832;2023-03-23T09:06:25;100287.91;;;15.70;58.97
77452;BME280;66537;52.370;4.832;2023-03-23T09:08:51;100294.72;;;14.65;60.29
77452;BME280;66537;52.370;4.832;2023-03-23T09:11:17;100300.75;;;13.66;63.12
77452;BME280;66537;52.370;4.832;2023-03-23T09:13:42;100307.75;;;13.29;65.20
77452;BME280;66537;52.370;4.832;2023-03-23T09:16:08;100301.56;;;13.13;65.79
77452;BME280;66537;52.370;4.832;2023-03-23T09:18:34;100280.41;;;12.66;66.87
77452;BME280;66537;52.370;4.832;2023-03-23T09:21:00;100291.81;;;12.62;68.01
77452;BME280;66537;52.370;4.832;2023-03-23T09:23:27;100300.44;;;13.72;66.27
77452;BME280;66537;52.370;4.832;2023-03-23T09:25:52;100294.38;;;13.37;66.27
77452;BME280;66537;52.370;4.832;2023-03-23T09:28:18;100313.81;;;13.81;64.01
77452;BME280;66537;52.370;4.832;2023-03-23T09:30:44;100298.16;;;14.32;64.73
77452;BME280;66537;52.370;4.832;2023-03-23T09:33:11;100300.72;;;13.48;64.46
77452;BME280;66537;52.370;4.832;2023-03-23T09:35:37;100303.63;;;13.42;64.04
77452;BME280;66537;52.370;4.832;2023-03-23T09:38:04;100307.28;;;13.38;64.01
77452;BME280;66537;52.370;4.832;2023-03-23T09:40:46;100296.03;;;13.21;64.15
77452;BME280;66537;52.370;4.832;2023-03-23T09:49:13;100311.78;;;13.35;61.75
77452;BME280;66537;52.370;4.832;2023-03-23T09:51:47;100318.16;;;14.32;61.09
77452;BME280;66537;52.370;4.832;2023-03-23T09:56:43;100326.38;;;14.73;58.85
77452;BME280;66537;52.370;4.832;2023-03-23T09:59:20;100348.22;;;13.69;61.60
77452;BME280;66537;52.370;4.832;2023-03-23T10:01:57;100334.06;;;13.57;61.73
77452;BME280;66537;52.370;4.832;2023-03-23T10:04:30;100326.94;;;14.62;60.70
77452;BME280;66537;52.370;4.832;2023-03-23T10:06:59;100321.81;;;16.13;58.25
77452;BME280;66537;52.370;4.832;2023-03-23T10:09:25;100327.28;;;16.53;56.05
77452;BME280;66537;52.370;4.832;2023-03-23T10:15:12;100328.06;;;14.41;60.02
77452;BME280;66537;52.370;4.832;2023-03-23T10:17:56;100353.50;;;14.02;62.32
77452;BME280;66537;52.370;4.832;2023-03-23T10:20:31;100340.56;;;13.49;63.20
77452;BME280;66537;52.370;4.832;2023-03-23T10:23:31;100345.00;;;14.15;62.67
77452;BME280;66537;52.370;4.832;2023-03-23T10:28:44;100343.31;;;13.80;63.43
77452;BME280;66537;52.370;4.832;2023-03-23T10:31:19;100352.66;;;14.18;63.42
77452;BME280;66537;52.370;4.832;2023-03-23T10:33:53;100355.44;;;14.96;59.86
77452;BME280;66537;52.370;4.832;2023-03-23T10:36:24;100343.78;;;15.66;58.84
77452;BME280;66537;52.370;4.832;2023-03-23T10:39:02;100348.13;;;16.39;56.14
77452;BME280;66537;52.370;4.832;2023-03-23T10:41:29;100349.31;;;15.75;56.82
77452;BME280;66537;52.370;4.832;2023-03-23T10:43:55;100358.53;;;14.72;58.27
77452;BME280;66537;52.370;4.832;2023-03-23T10:49:08;100350.69;;;13.89;61.15
77452;BME280;66537;52.370;4.832;2023-03-23T10:51:44;100351.91;;;14.66;60.11
77452;BME280;66537;52.370;4.832;2023-03-23T10:54:32;100356.22;;;15.29;58.64
77452;BME280;66537;52.370;4.832;2023-03-23T10:56:59;100357.44;;;15.99;57.32
77452;BME280;66537;52.370;4.832;2023-03-23T10:59:29;100346.69;;;17.17;55.85
77452;BME280;66537;52.370;4.832;2023-03-23T11:01:59;100360.66;;;16.62;55.05
77452;BME280;66537;52.370;4.832;2023-03-23T11:04:27;100357.28;;;15.43;56.24
77452;BME280;66537;52.370;4.832;2023-03-23T11:06:59;100351.00;;;15.29;57.34
77452;BME280;66537;52.370;4.832;2023-03-23T11:09:40;100357.81;;;15.63;58.26
77452;BME280;66537;52.370;4.832;2023-03-23T11:12:18;100356.63;;;15.37;58.64
77452;BME280;66537;52.370;4.832;2023-03-23T11:14:44;100362.03;;;15.03;58.05
77452;BME280;66537;52.370;4.832;2023-03-23T11:17:26;100359.84;;;14.48;58.23
77452;BME280;66537;52.370;4.832;2023-03-23T11:19:52;100368.91;;;13.71;59.84
77452;BME280;66537;52.370;4.832;2023-03-23T11:22:27;100361.66;;;13.60;60.75
77452;BME280;66537;52.370;4.832;2023-03-23T11:24:55;100358.63;;;13.86;59.88
77452;BME280;66537;52.370;4.832;2023-03-23T11:27:23;100363.72;;;13.71;61.00
77452;BME280;66537;52.370;4.832;2023-03-23T11:29:54;100369.56;;;13.93;61.59
77452;BME280;66537;52.370;4.832;2023-03-23T11:32:26;100347.38;;;14.70;59.05
77452;BME280;66537;52.370;4.832;2023-03-23T11:35:04;100364.50;;;14.74;58.17
77452;BME280;66537;52.370;4.832;2023-03-23T11:42:44;100359.25;;;14.08;59.79
77452;BME280;66537;52.370;4.832;2023-03-23T11:45:17;100363.56;;;14.42;59.13
77452;BME280;66537;52.370;4.832;2023-03-23T11:47:58;100349.06;;;14.04;60.09
77452;BME280;66537;52.370;4.832;2023-03-23T11:50:28;100361.47;;;14.33;59.22
77452;BME280;66537;52.370;4.832;2023-03-23T11:53:02;100356.19;;;14.00;59.93
77452;BME280;66537;52.370;4.832;2023-03-23T11:55:50;100361.38;;;14.00;60.46
77452;BME280;66537;52.370;4.832;2023-03-23T11:58:19;100368.72;;;14.09;61.39
77452;BME280;66537;52.370;4.832;2023-03-23T12:00:57;100356.78;;;14.05;61.21
77452;BME280;66537;52.370;4.832;2023-03-23T12:09:25;100377.84;;;13.84;62.40
77452;BME280;66537;52.370;4.832;2023-03-23T12:17:51;100379.97;;;14.10;59.22
77452;BME280;66537;52.370;4.832;2023-03-23T12:20:29;100362.44;;;13.62;60.05
77452;BME280;66537;52.370;4.832;2023-03-23T12:25:51;100361.75;;;13.76;60.01
77452;BME280;66537;52.370;4.832;2023-03-23T12:39:25;100373.53;;;13.66;62.08
77452;BME280;66537;52.370;4.832;2023-03-23T12:44:48;100361.25;;;13.50;62.57
77452;BME280;66537;52.370;4.832;2023-03-23T12:47:35;100351.28;;;13.60;61.90
77452;BME280;66537;52.370;4.832;2023-03-23T12:50:39;100369.69;;;13.73;60.87
77452;BME280;66537;52.370;4.832;2023-03-23T12:53:17;100361.50;;;13.63;61.22
77452;BME280;66537;52.370;4.832;2023-03-23T12:55:50;100362.63;;;13.40;61.95
77452;BME280;66537;52.370;4.832;2023-03-23T12:58:21;100357.53;;;13.56;62.53
77452;BME280;66537;52.370;4.832;2023-03-23T13:06:37;100366.97;;;13.40;65.30
77452;BME280;66537;52.370;4.832;2023-03-23T13:11:36;100370.22;;;13.62;65.04
77452;BME280;66537;52.370;4.832;2023-03-23T13:14:29;100368.94;;;13.35;65.37
77452;BME280;66537;52.370;4.832;2023-03-23T13:20:30;100386.78;;;13.42;65.94
77452;BME280;66537;52.370;4.832;2023-03-23T13:28:01;100364.56;;;13.71;61.24
77452;BME280;66537;52.370;4.832;2023-03-23T13:30:28;100399.47;;;13.48;59.87
77452;BME280;66537;52.370;4.832;2023-03-23T13:33:05;100371.47;;;13.36;59.76
77452;BME280;66537;52.370;4.832;2023-03-23T13:35:36;100399.75;;;13.42;59.23
77452;BME280;66537;52.370;4.832;2023-03-23T13:38:12;100401.66;;;13.39;57.83
77452;BME280;66537;52.370;4.832;2023-03-23T13:40:42;100388.31;;;13.46;58.75
77452;BME280;66537;52.370;4.832;2023-03-23T13:43:09;100407.59;;;13.59;59.65
77452;BME280;66537;52.370;4.832;2023-03-23T13:45:46;100401.78;;;13.36;60.21
77452;BME280;66537;52.370;4.832;2023-03-23T13:50:56;100389.50;;;13.39;62.60
77452;BME280;66537;52.370;4.832;2023-03-23T13:56:16;100366.00;;;13.59;62.79
77452;BME280;66537;52.370;4.832;2023-03-23T13:58:50;100384.06;;;13.63;63.58
77452;BME280;66537;52.370;4.832;2023-03-23T14:01:36;100394.88;;;13.72;64.30
77452;BME280;66537;52.370;4.832;2023-03-23T14:04:11;100362.03;;;13.52;64.41
77452;BME280;66537;52.370;4.832;2023-03-23T14:06:39;100369.97;;;13.49;64.37
77452;BME280;66537;52.370;4.832;2023-03-23T14:09:11;100360.31;;;13.70;64.56
77452;BME280;66537;52.370;4.832;2023-03-23T14:12:14;100368.91;;;13.71;64.80
77452;BME280;66537;52.370;4.832;2023-03-23T14:14:47;100365.81;;;13.64;64.78
77452;BME280;66537;52.370;4.832;2023-03-23T14:17:16;100355.53;;;13.61;64.87
77452;BME280;66537;52.370;4.832;2023-03-23T14:19:49;100378.56;;;13.69;64.88
77452;BME280;66537;52.370;4.832;2023-03-23T14:22:26;100367.34;;;13.68;64.46
77452;BME280;66537;52.370;4.832;2023-03-23T14:25:19;100361.88;;;13.73;64.07
77452;BME280;66537;52.370;4.832;2023-03-23T14:27:46;100349.72;;;13.56;62.85
77452;BME280;66537;52.370;4.832;2023-03-23T14:30:18;100356.22;;;13.65;63.11
77452;BME280;66537;52.370;4.832;2023-03-23T14:32:44;100342.50;;;13.63;61.99